Time;durP1;ratioP1;P1;durP2;ratioP2;P2;SDS_P1;SDS_P2;PMS_P1;PMS_P2;Temp;Humidity;BMP_temperature;BMP_pressure;BME280_temperature;BME280_humidity;BME280_pressure;Samples;Min_cycle;Max_cycle;Signal;HPM_P1;HPM_P2
2021/12/30 00:00:33;;;;;;;1.77;0.80;;;13.60;95.60;;;;;;4951023;28;20485;-73
2021/12/30 00:02:59;;;;;;;1.90;1.20;;;13.50;95.70;;;;;;4957333;28;20442;-73
2021/12/30 00:05:25;;;;;;;1.13;1.00;;;13.50;95.70;;;;;;4942190;28;20435;-72
2021/12/30 00:07:52;;;;;;;2.60;0.83;;;13.50;95.60;;;;;;4950269;28;20529;-73
2021/12/30 00:10:18;;;;;;;1.73;1.00;;;13.50;95.60;;;;;;4942138;28;20197;-74
2021/12/30 00:12:43;;;;;;;1.03;1.00;;;13.50;95.40;;;;;;4948308;28;20447;-75
2021/12/30 00:15:10;;;;;;;1.83;0.80;;;13.40;95.30;;;;;;4952520;28;20803;-74
2021/12/30 00:17:36;;;;;;;2.73;1.20;;;13.40;95.30;;;;;;4950485;28;20752;-74
2021/12/30 00:20:05;;;;;;;2.37;1.10;;;13.40;95.00;;;;;;4945637;28;20562;-74
2021/12/30 00:22:32;;;;;;;1.20;0.70;;;13.50;94.50;;;;;;4954702;28;20218;-73
2021/12/30 00:24:58;;;;;;;2.70;1.00;;;13.60;93.60;;;;;;4966104;28;20543;-74
2021/12/30 00:27:23;;;;;;;1.17;0.90;;;13.70;93.40;;;;;;4960170;28;20461;-74
2021/12/30 00:29:49;;;;;;;1.40;1.10;;;13.70;93.10;;;;;;4953365;28;20611;-73
2021/12/30 00:32:15;;;;;;;1.93;1.30;;;13.80;92.50;;;;;;4941227;28;20635;-74
2021/12/30 00:34:41;;;;;;;2.60;1.27;;;13.80;92.10;;;;;;4947818;28;20203;-72
2021/12/30 00:37:07;;;;;;;1.77;1.00;;;13.90;92.00;;;;;;4946487;28;20192;-75
2021/12/30 00:39:32;;;;;;;1.70;0.93;;;13.90;91.30;;;;;;4945869;28;20311;-74
2021/12/30 00:41:58;;;;;;;1.90;0.90;;;14.00;91.20;;;;;;4953527;28;20479;-74
2021/12/30 00:44:24;;;;;;;1.67;1.10;;;13.90;91.20;;;;;;4950500;28;20215;-73
2021/12/30 00:46:50;;;;;;;7.13;1.10;;;14.00;91.00;;;;;;4940790;28;20193;-73
2021/12/30 00:49:16;;;;;;;2.60;1.37;;;14.00;90.80;;;;;;4941474;28;20193;-72
2021/12/30 00:51:42;;;;;;;3.40;1.30;;;13.90;91.00;;;;;;4951350;28;20216;-75
2021/12/30 00:54:08;;;;;;;1.43;0.93;;;13.90;90.90;;;;;;4954182;28;20448;-74
2021/12/30 00:56:34;;;;;;;2.07;1.30;;;13.90;90.90;;;;;;4949571;28;20428;-73
2021/12/30 00:58:59;;;;;;;1.50;0.90;;;14.00;90.50;;;;;;4947061;28;20821;-72
2021/12/30 01:01:25;;;;;;;2.97;1.10;;;13.90;90.50;;;;;;4955662;28;20290;-73
2021/12/30 01:03:54;;;;;;;1.17;1.00;;;13.90;90.70;;;;;;4959292;28;20666;-72
2021/12/30 01:06:19;;;;;;;1.60;1.07;;;13.90;90.80;;;;;;4951069;28;20196;-74
2021/12/30 01:08:45;;;;;;;2.00;1.03;;;13.80;90.80;;;;;;4955077;28;20791;-73
2021/12/30 01:11:12;;;;;;;1.00;0.80;;;13.80;90.60;;;;;;4952264;28;20291;-76
2021/12/30 01:13:43;;;;;;;1.60;1.30;;;13.90;90.50;;;;;;4949277;28;20184;-73
2021/12/30 01:16:19;;;;;;;1.93;0.87;;;13.90;90.40;;;;;;4963152;28;20478;-73
2021/12/30 01:19:14;;;;;;;1.30;1.00;;;13.80;90.60;;;;;;4964147;28;20427;-71
2021/12/30 01:21:41;;;;;;;1.77;1.00;;;13.80;90.40;;;;;;4947691;28;20824;-74
2021/12/30 01:24:06;;;;;;;3.87;1.47;;;13.80;90.50;;;;;;4946003;28;20435;-74
2021/12/30 01:26:32;;;;;;;3.93;0.97;;;13.80;90.50;;;;;;4958336;28;20772;-72
2021/12/30 01:28:59;;;;;;;1.80;1.40;;;13.80;90.40;;;;;;4953767;28;20662;-75
2021/12/30 01:31:25;;;;;;;1.47;0.80;;;13.80;90.20;;;;;;4958693;28;20682;-73
2021/12/30 01:33:50;;;;;;;4.40;0.90;;;13.80;90.20;;;;;;4962360;28;20435;-74
2021/12/30 01:36:17;;;;;;;2.07;1.20;;;13.80;90.40;;;;;;4961687;28;20444;-73
2021/12/30 01:38:45;;;;;;;2.10;1.03;;;13.80;90.20;;;;;;4962989;28;20216;-74
2021/12/30 01:41:12;;;;;;;1.30;0.90;;;13.80;90.20;;;;;;4963968;28;20432;-74
2021/12/30 01:43:38;;;;;;;3.43;1.37;;;13.80;90.20;;;;;;4962918;28;20836;-73
2021/12/30 01:46:06;;;;;;;3.50;1.60;;;13.90;89.90;;;;;;4944305;28;20929;-72
2021/12/30 01:48:31;;;;;;;2.17;1.40;;;13.90;89.60;;;;;;4951345;28;20423;-75
2021/12/30 01:50:58;;;;;;;3.53;1.10;;;13.80;89.70;;;;;;4962213;28;20488;-75
2021/12/30 01:53:23;;;;;;;2.40;1.20;;;13.80;89.70;;;;;;4958490;28;20710;-74
2021/12/30 01:55:50;;;;;;;2.90;1.17;;;13.80;89.90;;;;;;4958805;28;20429;-74
2021/12/30 01:58:17;;;;;;;1.60;1.13;;;13.80;89.70;;;;;;4957914;28;20272;-73
2021/12/30 02:00:45;;;;;;;1.80;1.10;;;13.80;89.60;;;;;;4951960;28;20578;-75
2021/12/30 02:03:12;;;;;;;5.33;1.27;;;13.70;90.00;;;;;;4962916;28;20466;-74
2021/12/30 02:05:39;;;;;;;2.30;1.10;;;13.70;90.00;;;;;;4961697;28;20425;-73
2021/12/30 02:08:07;;;;;;;2.00;1.30;;;13.70;89.90;;;;;;4958009;28;20855;-75
2021/12/30 02:10:34;;;;;;;1.57;0.90;;;13.70;90.00;;;;;;4957350;28;20439;-73
2021/12/30 02:13:01;;;;;;;2.30;1.33;;;13.70;89.70;;;;;;4953062;28;20521;-73
2021/12/30 02:15:27;;;;;;;2.67;1.30;;;13.80;89.70;;;;;;4953016;28;20434;-73
2021/12/30 02:17:54;;;;;;;2.23;1.27;;;13.70;89.60;;;;;;4947476;28;20434;-72
2021/12/30 02:20:40;;;;;;;3.33;1.27;;;13.70;89.60;;;;;;4943239;28;20482;-74
2021/12/30 02:23:05;;;;;;;2.10;1.47;;;13.70;89.60;;;;;;4946581;28;20436;-73
2021/12/30 02:25:31;;;;;;;1.63;1.20;;;13.70;89.90;;;;;;4947427;28;20495;-72
2021/12/30 02:27:57;;;;;;;1.57;1.17;;;13.70;89.50;;;;;;4941629;28;20193;-73
2021/12/30 02:30:23;;;;;;;2.30;1.40;;;13.80;89.30;;;;;;4944852;28;20954;-71
2021/12/30 02:32:49;;;;;;;2.80;1.33;;;13.80;89.60;;;;;;4950471;28;20207;-73
2021/12/30 02:35:15;;;;;;;2.63;1.17;;;13.70;89.50;;;;;;4947500;28;20195;-74
2021/12/30 02:37:40;;;;;;;2.20;1.10;;;13.70;89.50;;;;;;4941554;28;20494;-73
2021/12/30 02:40:07;;;;;;;1.50;0.90;;;13.70;89.60;;;;;;4946234;28;20705;-72
2021/12/30 02:42:33;;;;;;;2.17;1.10;;;13.70;89.90;;;;;;4952650;28;20890;-72
2021/12/30 02:44:59;;;;;;;1.20;0.97;;;13.70;89.70;;;;;;4949896;28;20435;-73
2021/12/30 02:47:24;;;;;;;1.83;1.10;;;13.70;89.70;;;;;;4948344;28;20188;-74
2021/12/30 02:49:50;;;;;;;2.70;1.30;;;13.70;89.70;;;;;;4951911;28;20180;-72
2021/12/30 02:52:16;;;;;;;4.30;1.37;;;13.70;89.70;;;;;;4951649;28;20694;-74
2021/12/30 02:54:43;;;;;;;3.10;1.40;;;13.70;89.90;;;;;;4952113;28;20846;-73
2021/12/30 02:57:10;;;;;;;1.53;1.20;;;13.80;89.50;;;;;;4951054;28;20238;-72
2021/12/30 02:59:36;;;;;;;2.43;1.03;;;13.80;89.50;;;;;;4949225;28;20474;-72
2021/12/30 03:02:03;;;;;;;2.37;1.30;;;13.90;89.30;;;;;;4951248;28;20482;-73
2021/12/30 03:04:30;;;;;;;1.70;1.27;;;13.90;89.50;;;;;;4950564;28;20424;-74
2021/12/30 03:06:57;;;;;;;1.77;1.20;;;14.00;89.50;;;;;;4949753;28;20922;-72
2021/12/30 03:09:23;;;;;;;1.60;1.10;;;13.90;89.50;;;;;;4951306;28;20471;-73
2021/12/30 03:11:49;;;;;;;1.50;1.10;;;13.90;89.60;;;;;;4946736;28;20884;-74
2021/12/30 03:14:15;;;;;;;2.00;1.10;;;13.90;89.70;;;;;;4941217;28;20436;-73
2021/12/30 03:16:42;;;;;;;1.43;1.07;;;14.00;89.60;;;;;;4949734;28;20231;-73
2021/12/30 03:19:09;;;;;;;1.50;1.00;;;14.00;89.60;;;;;;4948608;28;20220;-73
2021/12/30 03:21:34;;;;;;;2.30;1.33;;;13.90;89.90;;;;;;4940516;28;20448;-72
2021/12/30 03:24:02;;;;;;;1.10;0.90;;;13.90;90.00;;;;;;4951427;28;20465;-73
2021/12/30 03:26:28;;;;;;;1.97;1.23;;;14.00;90.00;;;;;;4951146;28;20188;-74
2021/12/30 03:28:55;;;;;;;2.80;1.20;;;14.00;90.00;;;;;;4950923;28;20436;-72
2021/12/30 03:31:21;;;;;;;2.80;1.20;;;14.00;90.00;;;;;;4950744;28;20506;-72
2021/12/30 03:33:48;;;;;;;2.13;0.80;;;14.00;90.00;;;;;;4951230;28;20482;-72
2021/12/30 03:36:15;;;;;;;1.50;1.10;;;13.90;90.20;;;;;;4951301;28;20765;-72
2021/12/30 03:38:44;;;;;;;1.60;1.00;;;13.90;90.20;;;;;;4950819;28;20501;-75
2021/12/30 03:41:13;;;;;;;1.03;1.00;;;14.00;90.40;;;;;;4946588;28;20477;-74
2021/12/30 03:43:39;;;;;;;2.53;1.00;;;13.90;90.50;;;;;;4954771;28;20427;-73
2021/12/30 03:46:07;;;;;;;1.20;0.97;;;13.80;90.60;;;;;;4947308;28;20431;-71
2021/12/30 03:48:35;;;;;;;2.50;1.13;;;13.90;90.70;;;;;;4951176;28;20419;-75
2021/12/30 03:51:08;;;;;;;1.57;1.00;;;13.90;90.70;;;;;;4954525;28;20460;-72
2021/12/30 03:53:38;;;;;;;2.17;1.10;;;13.90;90.60;;;;;;4954459;28;20439;-72
2021/12/30 03:56:11;;;;;;;1.63;0.90;;;13.90;90.80;;;;;;4954415;28;20469;-73
2021/12/30 03:58:39;;;;;;;2.30;1.00;;;13.90;90.90;;;;;;4954923;28;20428;-72
2021/12/30 04:01:07;;;;;;;1.43;1.03;;;14.00;90.80;;;;;;4955455;28;20482;-74
2021/12/30 04:03:33;;;;;;;2.07;1.17;;;13.90;90.80;;;;;;4955480;28;20431;-74
2021/12/30 04:05:59;;;;;;;2.67;1.10;;;13.90;90.90;;;;;;4954618;28;20436;-72
2021/12/30 04:08:24;;;;;;;1.23;1.03;;;13.80;91.10;;;;;;4954392;28;20283;-72
2021/12/30 04:10:50;;;;;;;1.60;1.00;;;13.80;91.30;;;;;;4953043;28;20184;-72
2021/12/30 04:13:16;;;;;;;1.10;1.10;;;13.80;91.60;;;;;;4949350;28;20212;-74
2021/12/30 04:15:42;;;;;;;3.03;1.20;;;13.70;91.70;;;;;;4952930;28;20188;-76
2021/12/30 04:18:08;;;;;;;3.37;1.10;;;13.70;91.90;;;;;;4954560;28;20319;-76
2021/12/30 04:20:34;;;;;;;1.90;1.20;;;13.70;92.20;;;;;;4947496;28;20476;-75
2021/12/30 04:22:59;;;;;;;1.80;1.00;;;13.70;92.40;;;;;;4958063;28;20705;-75
2021/12/30 04:25:25;;;;;;;1.63;1.50;;;13.60;92.90;;;;;;4954386;28;20460;-76
2021/12/30 04:27:51;;;;;;;1.93;1.20;;;13.50;93.60;;;;;;4955563;28;20196;-75
2021/12/30 04:30:17;;;;;;;0.90;0.90;;;13.50;94.00;;;;;;4956129;28;20427;-74
2021/12/30 04:32:44;;;;;;;3.53;1.30;;;13.40;94.40;;;;;;4955084;28;20248;-76
2021/12/30 04:35:11;;;;;;;2.70;1.27;;;13.30;94.60;;;;;;4951723;28;20195;-74
2021/12/30 04:37:38;;;;;;;1.20;1.20;;;13.30;94.90;;;;;;4955202;28;20458;-73
2021/12/30 04:40:06;;;;;;;1.50;1.27;;;13.20;95.20;;;;;;4951576;28;20563;-73
2021/12/30 04:42:32;;;;;;;1.77;1.30;;;13.20;95.40;;;;;;4954221;28;20456;-76
2021/12/30 04:44:58;;;;;;;1.43;1.13;;;13.10;95.60;;;;;;4955862;28;20447;-73
2021/12/30 04:47:25;;;;;;;1.87;1.10;;;13.10;95.60;;;;;;4949730;28;20446;-76
2021/12/30 04:49:52;;;;;;;1.43;1.03;;;13.00;95.90;;;;;;4953527;28;20654;-75
2021/12/30 04:52:18;;;;;;;2.07;1.00;;;13.00;96.20;;;;;;4953728;28;20439;-74
2021/12/30 04:54:44;;;;;;;3.00;1.20;;;13.00;96.30;;;;;;4952785;28;20796;-75
2021/12/30 04:57:09;;;;;;;0.97;0.93;;;13.00;96.50;;;;;;4953946;28;20188;-76
2021/12/30 04:59:35;;;;;;;1.20;0.80;;;13.00;96.70;;;;;;4953627;28;20208;-74
2021/12/30 05:02:01;;;;;;;0.90;0.80;;;13.10;96.80;;;;;;4952819;28;20240;-75
2021/12/30 05:04:27;;;;;;;1.20;1.07;;;13.10;96.90;;;;;;4953922;28;20199;-76
2021/12/30 05:06:52;;;;;;;2.40;0.90;;;13.10;96.90;;;;;;4953716;28;20180;-76
2021/12/30 05:09:18;;;;;;;1.20;0.90;;;13.10;96.90;;;;;;4949234;28;20258;-76
2021/12/30 05:11:44;;;;;;;1.00;0.93;;;13.10;96.90;;;;;;4944111;28;20212;-73
2021/12/30 05:14:11;;;;;;;1.23;0.93;;;13.20;96.80;;;;;;4959633;28;20191;-75
2021/12/30 05:16:38;;;;;;;1.20;0.80;;;13.20;96.80;;;;;;4962698;28;20188;-76
2021/12/30 05:19:04;;;;;;;1.07;0.90;;;13.30;96.60;;;;;;4962144;28;21188;-74
2021/12/30 05:21:31;;;;;;;2.63;0.83;;;13.30;96.40;;;;;;4963198;28;20978;-74
2021/12/30 05:23:57;;;;;;;1.13;0.90;;;13.30;96.20;;;;;;4963402;28;20434;-74
2021/12/30 05:26:27;;;;;;;0.77;0.60;;;13.30;95.90;;;;;;4960723;28;20486;-76
2021/12/30 05:28:54;;;;;;;1.17;0.90;;;13.30;95.80;;;;;;4956024;28;20463;-75
2021/12/30 05:31:19;;;;;;;1.27;0.90;;;13.30;95.60;;;;;;4954948;28;20446;-77
2021/12/30 05:33:45;;;;;;;1.23;0.90;;;13.40;95.40;;;;;;4963625;28;20426;-75
2021/12/30 05:36:11;;;;;;;0.73;0.70;;;13.40;95.30;;;;;;4954169;28;20223;-75
2021/12/30 05:38:37;;;;;;;4.67;1.10;;;13.40;95.10;;;;;;4952348;28;20196;-75
2021/12/30 05:41:02;;;;;;;1.00;0.70;;;13.40;95.10;;;;;;4952913;28;20194;-75
2021/12/30 05:43:28;;;;;;;1.73;0.90;;;13.40;95.00;;;;;;4948208;28;20219;-75
2021/12/30 05:45:54;;;;;;;1.87;1.00;;;13.40;95.00;;;;;;4946950;28;20191;-75
2021/12/30 05:48:20;;;;;;;2.40;1.10;;;13.50;95.00;;;;;;4948665;28;20308;-76
2021/12/30 05:50:45;;;;;;;1.27;0.90;;;13.60;94.80;;;;;;4953234;28;20651;-74
2021/12/30 05:53:11;;;;;;;1.03;0.90;;;13.60;94.60;;;;;;4951839;28;20454;-73
2021/12/30 05:55:37;;;;;;;1.53;1.30;;;13.70;94.50;;;;;;4953284;28;20199;-74
2021/12/30 05:58:03;;;;;;;1.63;1.23;;;13.70;94.40;;;;;;4953242;28;20436;-73
2021/12/30 06:00:31;;;;;;;3.63;1.77;;;13.70;94.30;;;;;;4949894;28;20218;-75
2021/12/30 06:02:58;;;;;;;1.30;1.00;;;13.60;94.40;;;;;;4953313;28;20447;-78
2021/12/30 06:05:24;;;;;;;1.40;1.10;;;13.70;94.40;;;;;;4952375;28;20483;-74
2021/12/30 06:07:50;;;;;;;1.47;0.90;;;13.60;94.50;;;;;;4951625;28;20431;-74
2021/12/30 06:10:16;;;;;;;1.13;0.73;;;13.60;94.60;;;;;;4952071;28;20219;-77
2021/12/30 06:12:43;;;;;;;0.80;0.80;;;13.60;94.70;;;;;;4949314;28;20495;-75
2021/12/30 06:15:10;;;;;;;1.47;1.07;;;13.60;94.80;;;;;;4944949;28;20451;-76
2021/12/30 06:17:37;;;;;;;1.60;0.90;;;13.50;95.00;;;;;;4951575;28;20435;-74
2021/12/30 06:20:13;;;;;;;1.43;0.90;;;13.60;95.00;;;;;;4944833;28;20522;-76
2021/12/30 06:22:40;;;;;;;1.60;0.93;;;13.60;95.00;;;;;;4950386;28;20953;-74
2021/12/30 06:25:06;;;;;;;0.87;0.73;;;13.60;95.00;;;;;;4951915;28;20442;-75
2021/12/30 06:27:32;;;;;;;2.17;0.90;;;13.60;95.20;;;;;;4951524;28;20926;-75
2021/12/30 06:29:58;;;;;;;1.40;1.30;;;13.60;95.30;;;;;;4951819;28;20459;-76
2021/12/30 06:32:24;;;;;;;1.07;0.77;;;13.50;95.50;;;;;;4950613;28;20218;-77
2021/12/30 06:34:50;;;;;;;0.73;0.70;;;13.50;95.70;;;;;;4951892;28;20432;-75
2021/12/30 06:37:15;;;;;;;2.00;0.80;;;13.40;95.90;;;;;;4946512;28;20292;-76
2021/12/30 06:39:41;;;;;;;1.73;0.77;;;13.40;96.00;;;;;;4953867;28;20264;-73
2021/12/30 06:42:07;;;;;;;0.90;0.70;;;13.40;96.20;;;;;;4953216;28;20212;-75
2021/12/30 06:44:33;;;;;;;2.60;0.87;;;13.40;96.20;;;;;;4951648;28;20207;-75
2021/12/30 06:47:01;;;;;;;1.77;0.60;;;13.40;96.20;;;;;;4943829;28;20186;-75
2021/12/30 06:49:34;;;;;;;0.93;0.53;;;13.40;96.30;;;;;;4951799;28;20199;-75
2021/12/30 06:52:00;;;;;;;0.67;0.60;;;13.40;96.50;;;;;;4948777;28;20816;-74
2021/12/30 06:54:26;;;;;;;0.70;0.60;;;13.40;96.60;;;;;;4952124;28;20466;-73
2021/12/30 06:56:55;;;;;;;1.27;0.83;;;13.30;96.70;;;;;;4947712;28;20428;-72
2021/12/30 06:59:21;;;;;;;1.23;0.80;;;13.30;97.00;;;;;;4951742;28;20485;-71
2021/12/30 07:01:47;;;;;;;0.80;0.80;;;13.20;97.20;;;;;;4951568;28;20975;-72
2021/12/30 07:04:13;;;;;;;0.70;0.60;;;13.20;97.50;;;;;;4952336;28;20427;-73
2021/12/30 07:06:39;;;;;;;0.70;0.60;;;13.20;97.70;;;;;;4950707;28;20810;-74
2021/12/30 07:09:05;;;;;;;1.10;0.80;;;13.10;97.80;;;;;;4952153;28;20919;-74
2021/12/30 07:11:32;;;;;;;0.93;0.70;;;13.10;98.00;;;;;;4952475;28;20238;-74
2021/12/30 07:13:58;;;;;;;0.90;0.80;;;13.10;98.00;;;;;;4955584;28;20486;-73
2021/12/30 07:16:24;;;;;;;0.73;0.67;;;13.10;98.10;;;;;;4955016;28;20275;-74
2021/12/30 07:18:49;;;;;;;0.90;0.63;;;13.10;98.20;;;;;;4966715;28;20227;-74
2021/12/30 07:21:16;;;;;;;1.30;0.90;;;13.10;98.30;;;;;;4953424;28;20187;-73
2021/12/30 07:23:42;;;;;;;1.60;0.80;;;13.10;98.30;;;;;;4964254;28;20180;-74
2021/12/30 07:26:08;;;;;;;1.60;0.90;;;13.10;98.40;;;;;;4955450;28;20489;-73
2021/12/30 07:28:34;;;;;;;1.20;0.80;;;13.10;98.40;;;;;;4959695;28;20940;-76
2021/12/30 07:30:59;;;;;;;1.03;1.00;;;13.00;98.60;;;;;;4957311;28;20187;-73
2021/12/30 07:33:25;;;;;;;1.07;0.97;;;13.10;98.80;;;;;;4954293;28;20216;-73
2021/12/30 07:35:51;;;;;;;1.40;1.07;;;13.00;98.80;;;;;;4951639;28;20231;-72
2021/12/30 07:38:16;;;;;;;1.83;0.70;;;13.10;98.90;;;;;;4953112;28;20190;-74
2021/12/30 07:40:42;;;;;;;3.50;0.90;;;13.00;98.90;;;;;;4946588;28;20231;-75
2021/12/30 07:43:08;;;;;;;1.63;0.90;;;13.10;98.90;;;;;;4949503;28;20215;-73
2021/12/30 07:45:34;;;;;;;1.40;0.90;;;13.10;98.90;;;;;;4954298;28;20204;-72
2021/12/30 07:47:59;;;;;;;0.90;0.70;;;13.10;98.90;;;;;;4952245;28;20559;-73
2021/12/30 07:50:25;;;;;;;1.30;0.80;;;13.10;98.80;;;;;;4944434;28;20196;-73
2021/12/30 07:52:53;;;;;;;0.97;0.73;;;13.10;98.90;;;;;;4958992;28;20207;-74
2021/12/30 07:55:18;;;;;;;0.90;0.80;;;13.10;99.00;;;;;;4952018;28;20197;-74
2021/12/30 07:57:45;;;;;;;0.80;0.80;;;13.10;99.00;;;;;;4946838;28;20432;-74
2021/12/30 08:00:14;;;;;;;1.40;1.10;;;13.10;99.00;;;;;;4949766;28;20223;-73
2021/12/30 08:02:42;;;;;;;0.67;0.60;;;13.10;98.90;;;;;;4953658;28;20439;-72
2021/12/30 08:05:12;;;;;;;1.00;0.77;;;13.20;98.80;;;;;;4956761;28;20903;-73
2021/12/30 08:07:38;;;;;;;0.90;0.80;;;13.20;98.80;;;;;;4953716;28;20427;-73
2021/12/30 08:10:10;;;;;;;1.37;0.80;;;13.30;98.60;;;;;;4952286;28;20448;-74
2021/12/30 08:12:37;;;;;;;1.70;1.20;;;13.30;98.40;;;;;;4949312;28;20459;-75
2021/12/30 08:15:06;;;;;;;3.27;0.90;;;13.40;98.40;;;;;;4953795;28;20439;-76
2021/12/30 08:17:32;;;;;;;0.90;0.60;;;13.40;98.20;;;;;;4949928;28;20431;-77
2021/12/30 08:19:58;;;;;;;0.90;0.90;;;13.40;98.20;;;;;;4942073;28;20467;-74
2021/12/30 08:22:23;;;;;;;2.40;1.10;;;13.50;98.10;;;;;;4947780;28;20538;-77
2021/12/30 08:24:49;;;;;;;1.20;1.00;;;13.50;97.90;;;;;;4955193;28;20184;-75
2021/12/30 08:27:15;;;;;;;0.90;0.90;;;13.60;97.50;;;;;;4959812;28;20196;-75
2021/12/30 08:29:42;;;;;;;0.90;0.90;;;13.60;97.30;;;;;;4973402;28;20200;-76
2021/12/30 08:32:11;;;;;;;1.20;0.80;;;13.60;97.30;;;;;;4964477;28;20223;-76
2021/12/30 08:34:37;;;;;;;0.83;0.80;;;13.60;97.30;;;;;;4955239;28;20440;-75
2021/12/30 08:37:04;;;;;;;0.73;0.70;;;13.60;97.40;;;;;;4957246;28;20450;-75
2021/12/30 08:39:30;;;;;;;1.00;0.83;;;13.50;97.50;;;;;;4952858;28;20483;-75
2021/12/30 08:41:57;;;;;;;0.97;0.77;;;13.50;97.50;;;;;;4956580;28;20451;-76
2021/12/30 08:44:24;;;;;;;3.27;0.80;;;13.60;97.40;;;;;;4948278;28;20459;-75
2021/12/30 08:53:40;;;;;;;1.23;0.80;;;13.60;97.10;;;;;;4965408;23;20555;-77
2021/12/30 08:56:08;;;;;;;1.20;0.90;;;13.60;96.80;;;;;;4960710;28;20455;-78
2021/12/30 08:58:35;;;;;;;0.90;0.80;;;13.70;96.60;;;;;;4957660;28;20609;-75
2021/12/30 09:01:01;;;;;;;1.30;0.90;;;13.70;96.50;;;;;;4960574;28;20474;-77
2021/12/30 09:03:27;;;;;;;1.30;1.00;;;13.80;96.50;;;;;;4961773;28;20459;-75
2021/12/30 09:05:53;;;;;;;1.00;0.90;;;13.80;96.20;;;;;;4969765;28;20455;-75
2021/12/30 09:08:18;;;;;;;1.70;1.17;;;13.80;96.20;;;;;;4969095;28;20251;-75
2021/12/30 09:10:46;;;;;;;1.27;0.90;;;13.90;95.80;;;;;;4972409;28;20207;-75
2021/12/30 09:13:14;;;;;;;1.10;0.80;;;13.90;95.70;;;;;;4968766;28;20208;-76
2021/12/30 09:15:41;;;;;;;1.77;1.33;;;14.00;95.20;;;;;;4972476;28;20429;-74
2021/12/30 09:18:07;;;;;;;3.03;1.40;;;14.10;94.90;;;;;;4975928;28;20428;-76
2021/12/30 09:20:35;;;;;;;2.30;1.10;;;14.20;94.60;;;;;;4969471;28;20475;-77
2021/12/30 09:23:03;;;;;;;1.67;1.10;;;14.30;94.40;;;;;;4962828;28;20463;-77
2021/12/30 09:25:29;;;;;;;0.67;0.60;;;14.40;94.20;;;;;;4963306;28;20424;-74
2021/12/30 09:27:56;;;;;;;1.47;0.70;;;14.40;93.90;;;;;;4971183;28;20888;-77
2021/12/30 09:30:23;;;;;;;1.07;0.70;;;14.40;93.70;;;;;;4961424;28;20758;-76
2021/12/30 09:32:52;;;;;;;0.90;0.90;;;14.50;93.70;;;;;;4970170;28;20474;-76
2021/12/30 09:35:19;;;;;;;0.80;0.70;;;14.50;93.60;;;;;;4963653;28;20435;-77
2021/12/30 09:37:45;;;;;;;2.50;1.13;;;14.60;93.30;;;;;;4958806;28;20512;-76
2021/12/30 09:40:14;;;;;;;1.17;1.00;;;14.60;93.30;;;;;;4959379;28;20471;-76
2021/12/30 09:42:46;;;;;;;0.90;0.80;;;14.60;93.40;;;;;;4957712;28;20443;-77
2021/12/30 09:45:13;;;;;;;1.70;1.00;;;14.60;93.40;;;;;;4960210;28;20430;-74
2021/12/30 09:47:51;;;;;;;1.53;0.90;;;14.70;93.40;;;;;;4960084;28;20534;-78
2021/12/30 09:50:20;;;;;;;1.83;0.93;;;14.70;93.40;;;;;;4963343;28;20439;-77
2021/12/30 09:52:46;;;;;;;1.30;0.97;;;14.70;93.40;;;;;;4960367;28;20481;-77
2021/12/30 09:55:12;;;;;;;1.60;1.07;;;14.70;93.40;;;;;;4960053;28;20819;-78
2021/12/30 09:57:40;;;;;;;1.13;1.00;;;14.80;93.40;;;;;;4958860;28;20663;-75
2021/12/30 10:00:10;;;;;;;1.63;0.90;;;14.90;93.20;;;;;;4955551;28;20494;-76
2021/12/30 10:02:36;;;;;;;2.20;1.20;;;14.90;93.00;;;;;;4971197;28;20469;-77
2021/12/30 10:05:08;;;;;;;1.40;1.00;;;14.90;92.90;;;;;;4952506;28;20843;-77
2021/12/30 10:07:34;;;;;;;2.67;1.50;;;14.90;92.90;;;;;;4954240;28;20188;-76
2021/12/30 10:10:03;;;;;;;0.90;0.90;;;14.90;93.00;;;;;;4954934;28;20447;-77
2021/12/30 10:12:47;;;;;;;1.33;1.00;;;14.90;92.90;;;;;;4954672;28;21005;-74
2021/12/30 10:15:13;;;;;;;1.20;0.97;;;14.90;92.80;;;;;;4965452;28;20518;-74
2021/12/30 10:17:39;;;;;;;1.77;1.10;;;14.90;93.00;;;;;;4965424;28;20430;-77
2021/12/30 10:20:17;;;;;;;4.90;0.90;;;14.90;93.00;;;;;;4958090;28;20619;-80
2021/12/30 10:22:46;;;;;;;1.27;1.13;;;15.00;92.90;;;;;;4958833;28;20290;-76
2021/12/30 10:25:33;;;;;;;1.30;0.90;;;15.00;92.80;;;;;;4968822;28;21094;-78
2021/12/30 10:28:39;;;;;;;0.90;0.90;;;15.00;92.60;;;;;;4956749;28;20430;-76
2021/12/30 10:31:11;;;;;;;1.93;1.00;;;15.00;92.50;;;;;;4957531;28;20435;-76
2021/12/30 10:34:04;;;;;;;2.53;1.20;;;14.90;92.90;;;;;;4962907;28;20996;-77
2021/12/30 10:36:31;;;;;;;1.90;1.20;;;14.90;92.80;;;;;;4963975;28;20534;-76
2021/12/30 10:39:22;;;;;;;1.30;1.10;;;14.90;93.00;;;;;;4953592;28;20462;-73
2021/12/30 10:41:50;;;;;;;1.30;1.10;;;15.00;93.00;;;;;;4963733;28;20447;-76
2021/12/30 10:44:17;;;;;;;1.17;1.10;;;15.10;93.00;;;;;;4966143;28;20427;-75
2021/12/30 10:46:43;;;;;;;1.83;0.90;;;15.20;92.70;;;;;;4960079;28;20925;-76
2021/12/30 10:49:12;;;;;;;0.90;0.87;;;15.30;92.40;;;;;;4953894;28;20737;-74
2021/12/30 10:51:39;;;;;;;1.13;1.03;;;15.40;92.00;;;;;;4962790;28;20447;-77
2021/12/30 10:54:14;;;;;;;1.40;1.00;;;15.60;91.70;;;;;;4957514;28;20454;-75
2021/12/30 10:56:43;;;;;;;0.90;0.77;;;15.60;91.30;;;;;;4954297;28;20431;-78
2021/12/30 10:59:11;;;;;;;3.00;0.97;;;15.70;90.90;;;;;;4950722;29;20432;-76
2021/12/30 11:01:43;;;;;;;1.00;0.83;;;15.80;91.00;;;;;;4952653;28;20613;-74
2021/12/30 11:04:09;;;;;;;0.90;0.70;;;15.90;90.70;;;;;;4953604;28;20824;-75
2021/12/30 11:06:36;;;;;;;0.90;0.90;;;16.00;90.40;;;;;;4956895;28;20978;-77
2021/12/30 11:09:10;;;;;;;3.30;0.83;;;16.00;90.10;;;;;;4961568;28;20431;-77
2021/12/30 11:11:40;;;;;;;1.27;0.80;;;16.10;89.90;;;;;;4960840;28;20454;-76
2021/12/30 11:14:10;;;;;;;1.17;0.80;;;16.00;89.90;;;;;;4951223;29;20551;-75
2021/12/30 11:17:04;;;;;;;3.57;0.80;;;16.00;90.10;;;;;;4962360;28;20438;-75
2021/12/30 11:19:42;;;;;;;1.30;0.83;;;16.00;90.20;;;;;;4957955;28;20522;-74
2021/12/30 11:22:14;;;;;;;1.93;1.57;;;16.10;90.00;;;;;;4958596;28;20484;-75
2021/12/30 11:24:41;;;;;;;1.77;1.20;;;16.10;89.60;;;;;;4954826;28;20431;-75
2021/12/30 11:27:10;;;;;;;1.43;0.77;;;16.20;89.00;;;;;;4952284;28;20443;-75
2021/12/30 11:29:39;;;;;;;2.97;0.90;;;16.30;89.00;;;;;;4958538;28;20439;-76
2021/12/30 11:32:07;;;;;;;1.30;0.87;;;16.30;89.00;;;;;;4957429;28;20487;-75
2021/12/30 11:34:33;;;;;;;3.10;1.53;;;16.40;89.00;;;;;;4960645;28;20938;-74
2021/12/30 11:37:00;;;;;;;1.47;0.90;;;16.40;88.60;;;;;;4951197;28;20430;-75
2021/12/30 11:39:26;;;;;;;0.70;0.70;;;16.50;88.10;;;;;;4956538;28;20523;-74
2021/12/30 11:42:09;;;;;;;1.30;0.90;;;16.50;87.40;;;;;;4959518;28;20448;-73
2021/12/30 11:44:44;;;;;;;0.80;0.73;;;16.60;87.40;;;;;;4954399;28;20434;-73
2021/12/30 11:47:32;;;;;;;1.77;0.80;;;16.60;87.30;;;;;;4954420;28;20425;-73
2021/12/30 11:50:06;;;;;;;1.00;0.87;;;16.70;87.10;;;;;;4956617;28;20433;-73
2021/12/30 11:53:08;;;;;;;2.90;0.90;;;16.70;87.00;;;;;;4959052;28;20462;-73
2021/12/30 11:55:42;;;;;;;3.70;1.20;;;16.90;86.50;;;;;;4953034;28;20968;-75
2021/12/30 11:58:43;;;;;;;1.03;0.80;;;17.00;85.60;;;;;;4957717;28;20469;-74
2021/12/30 12:01:14;;;;;;;1.33;0.80;;;17.00;85.70;;;;;;4950039;28;20473;-73
2021/12/30 12:03:49;;;;;;;0.90;0.67;;;17.00;85.60;;;;;;4953093;28;20434;-74
2021/12/30 12:06:43;;;;;;;1.00;0.80;;;17.10;85.60;;;;;;4955643;28;20928;-74
2021/12/30 12:09:20;;;;;;;7.10;0.90;;;17.00;85.30;;;;;;4949280;28;20415;-74
2021/12/30 12:11:53;;;;;;;1.20;0.80;;;17.00;85.60;;;;;;4962161;28;20452;-74
2021/12/30 12:14:20;;;;;;;1.00;0.90;;;17.00;85.70;;;;;;4956578;28;20666;-74
2021/12/30 12:17:02;;;;;;;1.33;0.80;;;17.00;85.50;;;;;;4959003;28;20930;-74
2021/12/30 12:19:52;;;;;;;2.83;1.10;;;17.10;85.30;;;;;;4964705;28;20548;-74
2021/12/30 12:22:18;;;;;;;1.37;0.80;;;17.20;85.30;;;;;;4965042;28;20446;-75
2021/12/30 12:24:48;;;;;;;2.20;0.93;;;17.40;84.70;;;;;;4954004;28;20450;-74
2021/12/30 12:27:20;;;;;;;0.93;0.60;;;17.40;84.00;;;;;;4966081;28;20668;-73
2021/12/30 12:29:55;;;;;;;1.50;0.70;;;17.40;83.60;;;;;;4960810;28;20457;-73
2021/12/30 12:32:41;;;;;;;1.30;0.80;;;17.30;83.70;;;;;;4955641;28;20461;-73
2021/12/30 12:35:19;;;;;;;2.33;1.10;;;17.20;84.00;;;;;;4956970;28;20522;-74
2021/12/30 12:37:48;;;;;;;1.10;0.77;;;17.20;84.60;;;;;;4964714;28;20426;-74
2021/12/30 12:40:17;;;;;;;1.07;0.80;;;17.20;84.30;;;;;;4962842;28;20532;-75
2021/12/30 12:42:48;;;;;;;1.00;0.80;;;17.10;84.70;;;;;;4958601;28;20551;-74
2021/12/30 12:45:19;;;;;;;1.40;0.80;;;17.00;84.90;;;;;;4960170;28;20432;-74
2021/12/30 12:47:46;;;;;;;1.00;0.77;;;17.00;84.70;;;;;;4959553;28;20446;-73
2021/12/30 12:50:12;;;;;;;1.37;0.70;;;17.00;85.20;;;;;;4964431;28;20504;-73
2021/12/30 12:52:46;;;;;;;0.87;0.70;;;16.80;85.60;;;;;;4965604;28;20797;-74
2021/12/30 12:55:21;;;;;;;3.33;0.90;;;16.70;85.70;;;;;;4958325;28;20445;-73
2021/12/30 12:57:47;;;;;;;0.90;0.77;;;16.70;86.20;;;;;;4956979;28;20440;-74
2021/12/30 13:00:14;;;;;;;0.73;0.70;;;16.70;86.20;;;;;;4958483;28;21047;-73